sensor_id;sensor_type;location;lat;lon;timestamp;P1;durP1;ratioP1;P2;durP2;ratioP2
4867;SDS011;2448;48.086;10.862;2023-02-28T00:01:30;1.17;;;1.17;;
4867;SDS011;2448;48.086;10.862;2023-02-28T00:03:56;1.50;;;1.13;;
4867;SDS011;2448;48.086;10.862;2023-02-28T00:06:21;1.20;;;1.20;;
4867;SDS011;2448;48.086;10.862;2023-02-28T00:08:47;2.10;;;1.90;;
4867;SDS011;2448;48.086;10.862;2023-02-28T00:11:13;1.60;;;1.50;;
4867;SDS011;2448;48.086;10.862;2023-02-28T00:13:40;0.87;;;0.87;;
4867;SDS011;2448;48.086;10.862;2023-02-28T00:16:07;1.87;;;1.77;;
4867;SDS011;2448;48.086;10.862;2023-02-28T00:18:34;1.53;;;1.50;;
4867;SDS011;2448;48.086;10.862;2023-02-28T00:20:59;1.30;;;1.30;;
4867;SDS011;2448;48.086;10.862;2023-02-28T00:23:25;0.90;;;0.90;;
4867;SDS011;2448;48.086;10.862;2023-02-28T00:25:51;1.40;;;1.40;;
4867;SDS011;2448;48.086;10.862;2023-02-28T00:28:16;1.13;;;1.13;;
4867;SDS011;2448;48.086;10.862;2023-02-28T00:30:42;1.03;;;1.00;;
4867;SDS011;2448;48.086;10.862;2023-02-28T00:33:07;1.03;;;1.03;;
4867;SDS011;2448;48.086;10.862;2023-02-28T00:35:33;1.97;;;1.97;;
4867;SDS011;2448;48.086;10.862;2023-02-28T00:37:58;1.30;;;1.30;;
4867;SDS011;2448;48.086;10.862;2023-02-28T00:40:23;1.80;;;1.70;;
4867;SDS011;2448;48.086;10.862;2023-02-28T00:42:49;1.37;;;1.37;;
4867;SDS011;2448;48.086;10.862;2023-02-28T00:45:14;1.03;;;1.03;;
4867;SDS011;2448;48.086;10.862;2023-02-28T00:47:40;1.20;;;1.20;;
4867;SDS011;2448;48.086;10.862;2023-02-28T00:50:05;1.87;;;1.77;;
4867;SDS011;2448;48.086;10.862;2023-02-28T00:52:31;1.30;;;1.30;;
4867;SDS011;2448;48.086;10.862;2023-02-28T00:54:56;1.00;;;1.00;;
4867;SDS011;2448;48.086;10.862;2023-02-28T00:57:22;1.03;;;1.03;;
4867;SDS011;2448;48.086;10.862;2023-02-28T00:59:47;1.07;;;1.07;;
4867;SDS011;2448;48.086;10.862;2023-02-28T01:02:13;0.80;;;0.80;;
4867;SDS011;2448;48.086;10.862;2023-02-28T01:04:38;1.53;;;1.30;;
4867;SDS011;2448;48.086;10.862;2023-02-28T01:07:04;1.20;;;1.20;;
4867;SDS011;2448;48.086;10.862;2023-02-28T01:09:29;0.97;;;0.97;;
4867;SDS011;2448;48.086;10.862;2023-02-28T01:11:55;1.53;;;1.53;;
4867;SDS011;2448;48.086;10.862;2023-02-28T01:14:20;1.20;;;1.20;;
4867;SDS011;2448;48.086;10.862;2023-02-28T01:16:45;10.03;;;1.43;;
4867;SDS011;2448;48.086;10.862;2023-02-28T01:19:11;1.43;;;1.33;;
4867;SDS011;2448;48.086;10.862;2023-02-28T01:21:37;0.90;;;0.90;;
4867;SDS011;2448;48.086;10.862;2023-02-28T01:24:03;1.30;;;1.20;;
4867;SDS011;2448;48.086;10.862;2023-02-28T01:26:29;1.17;;;1.17;;
4867;SDS011;2448;48.086;10.862;2023-02-28T01:28:54;1.60;;;1.50;;
4867;SDS011;2448;48.086;10.862;2023-02-28T01:31:20;1.20;;;1.20;;
4867;SDS011;2448;48.086;10.862;2023-02-28T01:33:47;2.40;;;1.97;;
4867;SDS011;2448;48.086;10.862;2023-02-28T01:36:14;1.40;;;1.40;;
4867;SDS011;2448;48.086;10.862;2023-02-28T01:38:41;2.00;;;1.77;;
4867;SDS011;2448;48.086;10.862;2023-02-28T01:41:06;2.67;;;1.50;;
4867;SDS011;2448;48.086;10.862;2023-02-28T01:43:54;1.53;;;1.43;;
4867;SDS011;2448;48.086;10.862;2023-02-28T01:46:17;1.47;;;1.37;;
4867;SDS011;2448;48.086;10.862;2023-02-28T01:48:47;1.53;;;1.53;;
4867;SDS011;2448;48.086;10.862;2023-02-28T01:51:15;1.30;;;1.30;;
4867;SDS011;2448;48.086;10.862;2023-02-28T01:53:44;1.47;;;1.47;;
4867;SDS011;2448;48.086;10.862;2023-02-28T01:56:11;1.23;;;1.23;;
4867;SDS011;2448;48.086;10.862;2023-02-28T01:58:37;1.30;;;1.20;;
4867;SDS011;2448;48.086;10.862;2023-02-28T02:01:03;1.30;;;1.30;;
4867;SDS011;2448;48.086;10.862;2023-02-28T02:03:29;1.00;;;1.00;;
4867;SDS011;2448;48.086;10.862;2023-02-28T02:05:55;4.20;;;1.90;;
4867;SDS011;2448;48.086;10.862;2023-02-28T02:08:25;1.50;;;1.50;;
4867;SDS011;2448;48.086;10.862;2023-02-28T02:10:52;1.20;;;1.20;;
4867;SDS011;2448;48.086;10.862;2023-02-28T02:13:29;1.20;;;1.20;;
4867;SDS011;2448;48.086;10.862;2023-02-28T02:16:01;1.53;;;1.43;;
4867;SDS011;2448;48.086;10.862;2023-02-28T02:26:38;0.90;;;0.90;;
4867;SDS011;2448;48.086;10.862;2023-02-28T02:31:47;2.10;;;2.00;;
4867;SDS011;2448;48.086;10.862;2023-02-28T02:34:27;1.60;;;1.60;;
4867;SDS011;2448;48.086;10.862;2023-02-28T02:41:53;1.07;;;1.07;;
4867;SDS011;2448;48.086;10.862;2023-02-28T02:44:21;2.10;;;2.00;;
4867;SDS011;2448;48.086;10.862;2023-02-28T02:46:48;1.00;;;1.00;;
4867;SDS011;2448;48.086;10.862;2023-02-28T02:49:15;1.10;;;1.10;;
4867;SDS011;2448;48.086;10.862;2023-02-28T02:51:41;1.27;;;1.27;;
4867;SDS011;2448;48.086;10.862;2023-02-28T02:54:08;1.27;;;1.27;;
4867;SDS011;2448;48.086;10.862;2023-02-28T02:56:35;0.93;;;0.93;;
4867;SDS011;2448;48.086;10.862;2023-02-28T02:59:02;2.97;;;2.10;;
4867;SDS011;2448;48.086;10.862;2023-02-28T03:01:28;1.47;;;1.10;;
4867;SDS011;2448;48.086;10.862;2023-02-28T03:03:57;1.40;;;1.30;;
4867;SDS011;2448;48.086;10.862;2023-02-28T03:06:23;1.37;;;1.37;;
4867;SDS011;2448;48.086;10.862;2023-02-28T03:08:49;1.10;;;1.10;;
4867;SDS011;2448;48.086;10.862;2023-02-28T03:11:14;2.60;;;1.13;;
4867;SDS011;2448;48.086;10.862;2023-02-28T03:21:27;1.17;;;1.17;;
4867;SDS011;2448;48.086;10.862;2023-02-28T03:26:28;1.17;;;1.17;;
4867;SDS011;2448;48.086;10.862;2023-02-28T03:31:41;1.77;;;1.67;;
4867;SDS011;2448;48.086;10.862;2023-02-28T03:34:12;2.00;;;1.53;;
4867;SDS011;2448;48.086;10.862;2023-02-28T03:36:41;1.30;;;1.30;;
4867;SDS011;2448;48.086;10.862;2023-02-28T03:39:13;1.97;;;1.77;;
4867;SDS011;2448;48.086;10.862;2023-02-28T03:41:42;2.60;;;2.10;;
4867;SDS011;2448;48.086;10.862;2023-02-28T03:44:12;1.60;;;1.00;;
4867;SDS011;2448;48.086;10.862;2023-02-28T03:46:46;1.20;;;1.20;;
4867;SDS011;2448;48.086;10.862;2023-02-28T03:51:39;2.10;;;1.67;;
4867;SDS011;2448;48.086;10.862;2023-02-28T03:54:09;1.70;;;1.40;;
4867;SDS011;2448;48.086;10.862;2023-02-28T03:56:41;1.30;;;1.30;;
4867;SDS011;2448;48.086;10.862;2023-02-28T03:59:12;0.90;;;0.90;;
4867;SDS011;2448;48.086;10.862;2023-02-28T04:01:39;1.03;;;1.03;;
4867;SDS011;2448;48.086;10.862;2023-02-28T04:04:06;1.80;;;1.80;;
4867;SDS011;2448;48.086;10.862;2023-02-28T04:06:32;2.20;;;2.10;;
4867;SDS011;2448;48.086;10.862;2023-02-28T04:08:58;1.40;;;1.40;;
4867;SDS011;2448;48.086;10.862;2023-02-28T04:11:34;1.33;;;1.30;;
4867;SDS011;2448;48.086;10.862;2023-02-28T04:14:03;3.93;;;1.23;;
4867;SDS011;2448;48.086;10.862;2023-02-28T04:16:30;0.93;;;0.93;;
4867;SDS011;2448;48.086;10.862;2023-02-28T04:18:55;2.33;;;2.23;;
4867;SDS011;2448;48.086;10.862;2023-02-28T04:21:30;1.30;;;1.30;;
4867;SDS011;2448;48.086;10.862;2023-02-28T04:23:55;1.70;;;1.67;;
4867;SDS011;2448;48.086;10.862;2023-02-28T04:26:32;1.10;;;1.10;;
4867;SDS011;2448;48.086;10.862;2023-02-28T04:28:58;1.30;;;1.30;;
4867;SDS011;2448;48.086;10.862;2023-02-28T04:31:23;1.63;;;1.63;;
4867;SDS011;2448;48.086;10.862;2023-02-28T04:33:49;1.83;;;1.40;;
4867;SDS011;2448;48.086;10.862;2023-02-28T04:36:14;0.90;;;0.90;;
4867;SDS011;2448;48.086;10.862;2023-02-28T04:38:40;5.47;;;2.47;;
4867;SDS011;2448;48.086;10.862;2023-02-28T04:41:05;2.40;;;1.53;;
4867;SDS011;2448;48.086;10.862;2023-02-28T04:43:30;1.50;;;1.40;;
4867;SDS011;2448;48.086;10.862;2023-02-28T04:45:57;0.93;;;0.93;;
4867;SDS011;2448;48.086;10.862;2023-02-28T04:48:23;1.40;;;1.03;;
4867;SDS011;2448;48.086;10.862;2023-02-28T04:50:49;1.07;;;1.07;;
4867;SDS011;2448;48.086;10.862;2023-02-28T04:53:15;5.33;;;2.47;;
4867;SDS011;2448;48.086;10.862;2023-02-28T04:55:40;2.17;;;1.97;;
4867;SDS011;2448;48.086;10.862;2023-02-28T04:58:06;1.30;;;1.30;;
4867;SDS011;2448;48.086;10.862;2023-02-28T05:00:31;1.57;;;1.57;;
4867;SDS011;2448;48.086;10.862;2023-02-28T05:02:56;2.17;;;1.97;;
4867;SDS011;2448;48.086;10.862;2023-02-28T05:05:22;1.40;;;1.30;;
4867;SDS011;2448;48.086;10.862;2023-02-28T05:07:48;1.70;;;1.60;;
4867;SDS011;2448;48.086;10.862;2023-02-28T05:10:14;1.00;;;1.00;;
4867;SDS011;2448;48.086;10.862;2023-02-28T05:12:39;2.40;;;2.20;;
4867;SDS011;2448;48.086;10.862;2023-02-28T05:15:05;2.40;;;1.43;;
4867;SDS011;2448;48.086;10.862;2023-02-28T05:17:30;1.73;;;1.73;;
4867;SDS011;2448;48.086;10.862;2023-02-28T05:19:56;2.27;;;2.13;;
4867;SDS011;2448;48.086;10.862;2023-02-28T05:22:21;1.73;;;1.63;;
4867;SDS011;2448;48.086;10.862;2023-02-28T05:24:47;1.77;;;1.70;;
4867;SDS011;2448;48.086;10.862;2023-02-28T05:27:12;3.30;;;2.57;;
4867;SDS011;2448;48.086;10.862;2023-02-28T05:29:38;2.70;;;2.50;;
4867;SDS011;2448;48.086;10.862;2023-02-28T05:32:10;2.80;;;2.50;;
4867;SDS011;2448;48.086;10.862;2023-02-28T05:34:37;1.40;;;1.40;;
4867;SDS011;2448;48.086;10.862;2023-02-28T05:37:02;1.73;;;1.73;;
4867;SDS011;2448;48.086;10.862;2023-02-28T05:39:27;1.27;;;1.27;;
4867;SDS011;2448;48.086;10.862;2023-02-28T05:41:53;3.33;;;1.53;;
4867;SDS011;2448;48.086;10.862;2023-02-28T05:44:18;2.37;;;1.80;;
4867;SDS011;2448;48.086;10.862;2023-02-28T05:46:43;2.07;;;1.93;;
4867;SDS011;2448;48.086;10.862;2023-02-28T05:49:09;2.90;;;2.70;;
4867;SDS011;2448;48.086;10.862;2023-02-28T05:51:34;1.43;;;1.40;;
4867;SDS011;2448;48.086;10.862;2023-02-28T05:54:01;1.77;;;1.67;;
4867;SDS011;2448;48.086;10.862;2023-02-28T05:56:26;2.10;;;2.00;;
4867;SDS011;2448;48.086;10.862;2023-02-28T05:58:52;2.40;;;2.30;;
4867;SDS011;2448;48.086;10.862;2023-02-28T06:01:21;2.53;;;2.20;;
4867;SDS011;2448;48.086;10.862;2023-02-28T06:03:47;3.50;;;2.10;;
4867;SDS011;2448;48.086;10.862;2023-02-28T06:06:13;5.80;;;3.00;;
4867;SDS011;2448;48.086;10.862;2023-02-28T06:08:38;1.73;;;1.63;;
4867;SDS011;2448;48.086;10.862;2023-02-28T06:11:04;2.93;;;2.70;;
4867;SDS011;2448;48.086;10.862;2023-02-28T06:13:29;4.43;;;2.77;;
4867;SDS011;2448;48.086;10.862;2023-02-28T06:15:54;3.90;;;1.87;;
4867;SDS011;2448;48.086;10.862;2023-02-28T06:18:20;2.30;;;2.20;;
4867;SDS011;2448;48.086;10.862;2023-02-28T06:20:51;2.47;;;2.37;;
4867;SDS011;2448;48.086;10.862;2023-02-28T06:23:18;3.20;;;3.03;;
4867;SDS011;2448;48.086;10.862;2023-02-28T06:25:46;8.00;;;2.70;;
4867;SDS011;2448;48.086;10.862;2023-02-28T06:28:12;2.77;;;2.53;;
4867;SDS011;2448;48.086;10.862;2023-02-28T06:30:37;12.43;;;3.73;;
4867;SDS011;2448;48.086;10.862;2023-02-28T06:33:03;2.83;;;2.60;;
4867;SDS011;2448;48.086;10.862;2023-02-28T06:35:28;2.50;;;2.40;;
4867;SDS011;2448;48.086;10.862;2023-02-28T06:37:54;5.00;;;3.50;;
4867;SDS011;2448;48.086;10.862;2023-02-28T06:40:20;2.40;;;2.40;;
4867;SDS011;2448;48.086;10.862;2023-02-28T06:42:45;2.73;;;2.27;;
4867;SDS011;2448;48.086;10.862;2023-02-28T06:45:11;2.37;;;2.20;;
4867;SDS011;2448;48.086;10.862;2023-02-28T06:47:40;4.93;;;3.10;;
4867;SDS011;2448;48.086;10.862;2023-02-28T06:50:06;2.87;;;2.67;;
4867;SDS011;2448;48.086;10.862;2023-02-28T06:52:32;4.13;;;2.73;;
4867;SDS011;2448;48.086;10.862;2023-02-28T06:54:58;2.63;;;2.27;;
4867;SDS011;2448;48.086;10.862;2023-02-28T06:57:29;3.43;;;3.23;;
4867;SDS011;2448;48.086;10.862;2023-02-28T06:59:57;2.33;;;2.23;;
4867;SDS011;2448;48.086;10.862;2023-02-28T07:02:22;5.30;;;3.17;;
4867;SDS011;2448;48.086;10.862;2023-02-28T07:04:48;2.50;;;2.40;;
4867;SDS011;2448;48.086;10.862;2023-02-28T07:07:13;7.90;;;4.27;;
4867;SDS011;2448;48.086;10.862;2023-02-28T07:09:38;2.63;;;2.43;;
4867;SDS011;2448;48.086;10.862;2023-02-28T07:12:04;4.30;;;3.50;;
4867;SDS011;2448;48.086;10.862;2023-02-28T07:14:29;17.23;;;3.97;;
4867;SDS011;2448;48.086;10.862;2023-02-28T07:16:55;5.43;;;3.53;;
4867;SDS011;2448;48.086;10.862;2023-02-28T07:19:20;3.90;;;3.53;;
4867;SDS011;2448;48.086;10.862;2023-02-28T07:21:46;3.60;;;3.40;;
4867;SDS011;2448;48.086;10.862;2023-02-28T07:24:11;3.60;;;3.20;;
4867;SDS011;2448;48.086;10.862;2023-02-28T07:26:36;3.10;;;2.73;;
4867;SDS011;2448;48.086;10.862;2023-02-28T07:29:02;5.50;;;3.57;;
4867;SDS011;2448;48.086;10.862;2023-02-28T07:31:27;6.00;;;2.53;;
4867;SDS011;2448;48.086;10.862;2023-02-28T07:33:52;2.67;;;2.50;;
4867;SDS011;2448;48.086;10.862;2023-02-28T07:36:19;3.37;;;3.00;;
4867;SDS011;2448;48.086;10.862;2023-02-28T07:38:45;8.10;;;4.20;;
4867;SDS011;2448;48.086;10.862;2023-02-28T07:41:14;4.23;;;3.80;;
4867;SDS011;2448;48.086;10.862;2023-02-28T07:43:39;4.53;;;4.23;;
4867;SDS011;2448;48.086;10.862;2023-02-28T07:46:06;3.00;;;2.80;;
4867;SDS011;2448;48.086;10.862;2023-02-28T07:48:32;4.00;;;3.67;;
4867;SDS011;2448;48.086;10.862;2023-02-28T07:50:58;3.97;;;3.23;;
4867;SDS011;2448;48.086;10.862;2023-02-28T07:53:24;4.10;;;3.47;;
4867;SDS011;2448;48.086;10.862;2023-02-28T07:55:49;6.07;;;3.57;;
4867;SDS011;2448;48.086;10.862;2023-02-28T07:58:14;3.67;;;3.37;;
4867;SDS011;2448;48.086;10.862;2023-02-28T08:00:40;5.23;;;3.40;;
4867;SDS011;2448;48.086;10.862;2023-02-28T08:03:05;4.97;;;3.93;;
4867;SDS011;2448;48.086;10.862;2023-02-28T08:05:31;3.80;;;3.30;;
4867;SDS011;2448;48.086;10.862;2023-02-28T08:07:56;4.30;;;3.90;;
4867;SDS011;2448;48.086;10.862;2023-02-28T08:10:22;4.53;;;3.43;;
4867;SDS011;2448;48.086;10.862;2023-02-28T08:12:47;4.57;;;3.63;;
4867;SDS011;2448;48.086;10.862;2023-02-28T08:15:13;5.30;;;3.20;;
4867;SDS011;2448;48.086;10.862;2023-02-28T08:17:38;5.77;;;4.23;;
4867;SDS011;2448;48.086;10.862;2023-02-28T08:20:04;3.60;;;3.30;;
4867;SDS011;2448;48.086;10.862;2023-02-28T08:22:29;2.93;;;2.77;;
4867;SDS011;2448;48.086;10.862;2023-02-28T08:24:55;5.97;;;4.07;;
4867;SDS011;2448;48.086;10.862;2023-02-28T08:27:20;5.13;;;4.47;;
4867;SDS011;2448;48.086;10.862;2023-02-28T08:29:45;5.30;;;4.17;;
4867;SDS011;2448;48.086;10.862;2023-02-28T08:32:11;4.70;;;3.97;;
4867;SDS011;2448;48.086;10.862;2023-02-28T08:34:38;2.93;;;2.70;;
4867;SDS011;2448;48.086;10.862;2023-02-28T08:37:03;4.00;;;3.60;;
4867;SDS011;2448;48.086;10.862;2023-02-28T08:39:29;4.23;;;3.67;;
4867;SDS011;2448;48.086;10.862;2023-02-28T08:41:54;5.47;;;4.37;;
4867;SDS011;2448;48.086;10.862;2023-02-28T08:44:20;4.37;;;4.10;;
4867;SDS011;2448;48.086;10.862;2023-02-28T08:46:45;6.30;;;4.07;;
4867;SDS011;2448;48.086;10.862;2023-02-28T08:49:10;7.00;;;4.33;;
4867;SDS011;2448;48.086;10.862;2023-02-28T08:51:36;4.93;;;3.70;;
4867;SDS011;2448;48.086;10.862;2023-02-28T08:54:03;4.57;;;4.10;;
4867;SDS011;2448;48.086;10.862;2023-02-28T08:56:28;6.43;;;4.10;;
4867;SDS011;2448;48.086;10.862;2023-02-28T08:58:55;27.17;;;5.30;;
4867;SDS011;2448;48.086;10.862;2023-02-28T09:01:22;8.27;;;3.87;;
4867;SDS011;2448;48.086;10.862;2023-02-28T09:03:48;6.07;;;4.20;;
4867;SDS011;2448;48.086;10.862;2023-02-28T09:06:14;12.30;;;4.80;;
4867;SDS011;2448;48.086;10.862;2023-02-28T09:08:41;5.17;;;4.53;;
4867;SDS011;2448;48.086;10.862;2023-02-28T09:11:06;11.50;;;4.67;;
4867;SDS011;2448;48.086;10.862;2023-02-28T09:13:32;5.33;;;3.93;;
4867;SDS011;2448;48.086;10.862;2023-02-28T09:15:58;5.03;;;4.00;;
4867;SDS011;2448;48.086;10.862;2023-02-28T09:18:24;13.40;;;5.83;;
4867;SDS011;2448;48.086;10.862;2023-02-28T09:20:49;15.27;;;4.77;;
4867;SDS011;2448;48.086;10.862;2023-02-28T09:23:15;6.50;;;4.40;;
4867;SDS011;2448;48.086;10.862;2023-02-28T09:25:47;10.87;;;4.63;;
4867;SDS011;2448;48.086;10.862;2023-02-28T09:28:13;7.10;;;4.90;;
4867;SDS011;2448;48.086;10.862;2023-02-28T09:30:41;4.70;;;4.23;;
4867;SDS011;2448;48.086;10.862;2023-02-28T09:33:06;17.53;;;4.07;;
4867;SDS011;2448;48.086;10.862;2023-02-28T09:35:32;7.70;;;4.97;;
4867;SDS011;2448;48.086;10.862;2023-02-28T09:37:57;5.47;;;4.60;;
4867;SDS011;2448;48.086;10.862;2023-02-28T09:40:23;7.97;;;4.90;;
4867;SDS011;2448;48.086;10.862;2023-02-28T09:42:50;5.07;;;4.60;;
4867;SDS011;2448;48.086;10.862;2023-02-28T09:45:22;7.57;;;5.30;;
4867;SDS011;2448;48.086;10.862;2023-02-28T09:47:48;6.07;;;5.00;;
4867;SDS011;2448;48.086;10.862;2023-02-28T09:52:51;11.30;;;5.83;;
4867;SDS011;2448;48.086;10.862;2023-02-28T09:57:45;8.30;;;5.43;;
4867;SDS011;2448;48.086;10.862;2023-02-28T10:03:06;6.33;;;4.93;;
4867;SDS011;2448;48.086;10.862;2023-02-28T10:05:41;6.43;;;5.17;;
4867;SDS011;2448;48.086;10.862;2023-02-28T10:08:15;18.03;;;5.80;;
4867;SDS011;2448;48.086;10.862;2023-02-28T10:13:13;6.00;;;4.33;;
4867;SDS011;2448;48.086;10.862;2023-02-28T10:15:39;10.20;;;5.83;;
4867;SDS011;2448;48.086;10.862;2023-02-28T10:18:06;7.20;;;5.30;;
4867;SDS011;2448;48.086;10.862;2023-02-28T10:20:35;13.60;;;6.00;;
4867;SDS011;2448;48.086;10.862;2023-02-28T10:23:04;4.30;;;4.00;;
4867;SDS011;2448;48.086;10.862;2023-02-28T10:25:34;9.33;;;5.30;;
4867;SDS011;2448;48.086;10.862;2023-02-28T10:28:12;3.90;;;3.60;;
4867;SDS011;2448;48.086;10.862;2023-02-28T10:30:39;15.90;;;5.93;;
4867;SDS011;2448;48.086;10.862;2023-02-28T10:33:05;6.67;;;4.77;;
4867;SDS011;2448;48.086;10.862;2023-02-28T10:35:30;7.00;;;4.93;;
4867;SDS011;2448;48.086;10.862;2023-02-28T10:37:59;8.10;;;4.83;;
4867;SDS011;2448;48.086;10.862;2023-02-28T10:40:30;6.83;;;5.00;;
4867;SDS011;2448;48.086;10.862;2023-02-28T10:43:03;11.93;;;5.73;;
4867;SDS011;2448;48.086;10.862;2023-02-28T10:45:29;7.57;;;5.10;;
4867;SDS011;2448;48.086;10.862;2023-02-28T10:48:01;7.00;;;5.20;;
4867;SDS011;2448;48.086;10.862;2023-02-28T10:52:53;9.40;;;5.77;;
4867;SDS011;2448;48.086;10.862;2023-02-28T10:55:22;8.40;;;5.90;;
4867;SDS011;2448;48.086;10.862;2023-02-28T10:57:49;12.17;;;7.47;;
4867;SDS011;2448;48.086;10.862;2023-02-28T11:02:43;6.67;;;4.67;;
4867;SDS011;2448;48.086;10.862;2023-02-28T11:07:54;5.10;;;4.60;;
4867;SDS011;2448;48.086;10.862;2023-02-28T11:10:20;11.20;;;6.20;;
4867;SDS011;2448;48.086;10.862;2023-02-28T11:12:47;7.43;;;5.27;;
4867;SDS011;2448;48.086;10.862;2023-02-28T11:15:32;9.03;;;5.40;;
4867;SDS011;2448;48.086;10.862;2023-02-28T11:20:28;6.13;;;5.17;;
4867;SDS011;2448;48.086;10.862;2023-02-28T11:22:53;24.87;;;5.80;;
4867;SDS011;2448;48.086;10.862;2023-02-28T11:27:47;8.57;;;5.20;;
4867;SDS011;2448;48.086;10.862;2023-02-28T11:32:57;11.57;;;6.53;;
4867;SDS011;2448;48.086;10.862;2023-02-28T11:35:24;8.40;;;5.90;;
4867;SDS011;2448;48.086;10.862;2023-02-28T11:37:50;10.67;;;6.27;;
4867;SDS011;2448;48.086;10.862;2023-02-28T11:40:18;11.03;;;6.40;;
4867;SDS011;2448;48.086;10.862;2023-02-28T11:45:30;15.03;;;7.80;;
4867;SDS011;2448;48.086;10.862;2023-02-28T11:50:50;8.87;;;6.00;;
4867;SDS011;2448;48.086;10.862;2023-02-28T11:56:08;6.70;;;5.30;;
4867;SDS011;2448;48.086;10.862;2023-02-28T12:01:56;8.73;;;6.40;;
4867;SDS011;2448;48.086;10.862;2023-02-28T12:06:45;7.17;;;5.30;;
4867;SDS011;2448;48.086;10.862;2023-02-28T12:09:16;13.37;;;6.97;;
4867;SDS011;2448;48.086;10.862;2023-02-28T12:11:51;11.83;;;5.53;;
4867;SDS011;2448;48.086;10.862;2023-02-28T12:22:56;9.63;;;6.17;;
4867;SDS011;2448;48.086;10.862;2023-02-28T12:27:18;7.03;;;4.93;;
4867;SDS011;2448;48.086;10.862;2023-02-28T12:29:48;7.57;;;5.40;;
4867;SDS011;2448;48.086;10.862;2023-02-28T12:32:37;5.87;;;4.73;;
4867;SDS011;2448;48.086;10.862;2023-02-28T12:40:01;9.77;;;6.23;;
4867;SDS011;2448;48.086;10.862;2023-02-28T12:42:32;10.73;;;6.00;;
4867;SDS011;2448;48.086;10.862;2023-02-28T12:44:59;20.37;;;6.17;;
4867;SDS011;2448;48.086;10.862;2023-02-28T12:47:26;7.43;;;6.30;;
4867;SDS011;2448;48.086;10.862;2023-02-28T12:50:08;12.13;;;6.73;;
4867;SDS011;2448;48.086;10.862;2023-02-28T12:55:38;10.10;;;6.77;;
4867;SDS011;2448;48.086;10.862;2023-02-28T13:00:22;11.20;;;7.30;;
4867;SDS011;2448;48.086;10.862;2023-02-28T13:10:37;11.40;;;7.20;;
4867;SDS011;2448;48.086;10.862;2023-02-28T13:13:03;9.90;;;6.50;;
4867;SDS011;2448;48.086;10.862;2023-02-28T13:15:29;10.70;;;6.70;;
4867;SDS011;2448;48.086;10.862;2023-02-28T13:17:56;9.47;;;6.27;;
4867;SDS011;2448;48.086;10.862;2023-02-28T13:20:26;12.23;;;6.67;;
4867;SDS011;2448;48.086;10.862;2023-02-28T13:22:52;11.90;;;6.60;;
4867;SDS011;2448;48.086;10.862;2023-02-28T13:27:58;10.53;;;7.47;;
4867;SDS011;2448;48.086;10.862;2023-02-28T13:38:41;16.23;;;8.30;;
4867;SDS011;2448;48.086;10.862;2023-02-28T13:44:18;9.63;;;6.20;;
4867;SDS011;2448;48.086;10.862;2023-02-28T13:51:44;17.47;;;7.00;;
4867;SDS011;2448;48.086;10.862;2023-02-28T13:57:13;9.40;;;6.13;;
4867;SDS011;2448;48.086;10.862;2023-02-28T14:04:47;12.50;;;7.73;;
4867;SDS011;2448;48.086;10.862;2023-02-28T14:07:16;11.43;;;6.93;;
4867;SDS011;2448;48.086;10.862;2023-02-28T14:09:46;8.43;;;6.50;;
4867;SDS011;2448;48.086;10.862;2023-02-28T14:12:51;10.30;;;6.17;;
4867;SDS011;2448;48.086;10.862;2023-02-28T14:15:04;13.23;;;6.57;;
4867;SDS011;2448;48.086;10.862;2023-02-28T14:17:30;12.00;;;6.90;;
4867;SDS011;2448;48.086;10.862;2023-02-28T14:19:56;22.60;;;7.23;;
4867;SDS011;2448;48.086;10.862;2023-02-28T14:30:24;9.37;;;6.33;;
4867;SDS011;2448;48.086;10.862;2023-02-28T14:37:51;11.17;;;7.10;;
4867;SDS011;2448;48.086;10.862;2023-02-28T14:40:21;11.93;;;7.40;;
4867;SDS011;2448;48.086;10.862;2023-02-28T14:42:54;8.90;;;6.10;;
4867;SDS011;2448;48.086;10.862;2023-02-28T14:45:20;8.03;;;5.90;;
4867;SDS011;2448;48.086;10.862;2023-02-28T14:47:47;15.00;;;6.60;;
4867;SDS011;2448;48.086;10.862;2023-02-28T14:50:17;9.53;;;5.97;;
4867;SDS011;2448;48.086;10.862;2023-02-28T14:52:43;9.20;;;6.20;;
4867;SDS011;2448;48.086;10.862;2023-02-28T14:55:17;4.40;;;3.67;;
4867;SDS011;2448;48.086;10.862;2023-02-28T14:57:53;16.53;;;6.60;;
4867;SDS011;2448;48.086;10.862;2023-02-28T15:00:26;9.57;;;5.90;;
4867;SDS011;2448;48.086;10.862;2023-02-28T15:02:52;8.70;;;5.60;;
4867;SDS011;2448;48.086;10.862;2023-02-28T15:07:59;9.57;;;6.47;;
4867;SDS011;2448;48.086;10.862;2023-02-28T15:10:26;11.97;;;6.33;;
4867;SDS011;2448;48.086;10.862;2023-02-28T15:12:59;7.70;;;5.40;;
4867;SDS011;2448;48.086;10.862;2023-02-28T15:15:47;9.10;;;5.30;;
4867;SDS011;2448;48.086;10.862;2023-02-28T15:18:15;9.30;;;5.93;;
4867;SDS011;2448;48.086;10.862;2023-02-28T15:20:43;7.90;;;5.37;;
4867;SDS011;2448;48.086;10.862;2023-02-28T15:23:09;9.43;;;5.73;;
4867;SDS011;2448;48.086;10.862;2023-02-28T15:25:35;10.67;;;5.37;;
4867;SDS011;2448;48.086;10.862;2023-02-28T15:28:00;8.23;;;6.00;;
4867;SDS011;2448;48.086;10.862;2023-02-28T15:30:27;8.43;;;4.90;;
4867;SDS011;2448;48.086;10.862;2023-02-28T15:35:47;7.93;;;5.50;;
4867;SDS011;2448;48.086;10.862;2023-02-28T15:38:23;9.50;;;5.77;;
4867;SDS011;2448;48.086;10.862;2023-02-28T15:40:50;9.30;;;5.63;;
4867;SDS011;2448;48.086;10.862;2023-02-28T15:43:26;5.87;;;4.63;;
4867;SDS011;2448;48.086;10.862;2023-02-28T15:45:59;7.33;;;5.10;;
4867;SDS011;2448;48.086;10.862;2023-02-28T15:48:27;11.33;;;5.03;;
4867;SDS011;2448;48.086;10.862;2023-02-28T15:50:57;5.60;;;4.63;;
4867;SDS011;2448;48.086;10.862;2023-02-28T15:53:24;8.60;;;5.60;;
4867;SDS011;2448;48.086;10.862;2023-02-28T15:55:55;6.60;;;4.73;;
4867;SDS011;2448;48.086;10.862;2023-02-28T15:58:21;6.50;;;4.70;;
4867;SDS011;2448;48.086;10.862;2023-02-28T16:00:59;5.37;;;4.03;;
4867;SDS011;2448;48.086;10.862;2023-02-28T16:03:25;5.23;;;4.53;;
4867;SDS011;2448;48.086;10.862;2023-02-28T16:06:19;7.97;;;5.47;;
4867;SDS011;2448;48.086;10.862;2023-02-28T16:08:46;7.03;;;5.80;;
4867;SDS011;2448;48.086;10.862;2023-02-28T16:11:14;5.97;;;5.37;;
4867;SDS011;2448;48.086;10.862;2023-02-28T16:13:39;14.30;;;4.90;;
4867;SDS011;2448;48.086;10.862;2023-02-28T16:16:05;8.33;;;5.80;;
4867;SDS011;2448;48.086;10.862;2023-02-28T16:18:30;6.37;;;4.70;;
4867;SDS011;2448;48.086;10.862;2023-02-28T16:20:55;4.03;;;3.60;;
4867;SDS011;2448;48.086;10.862;2023-02-28T16:23:21;10.40;;;5.63;;
4867;SDS011;2448;48.086;10.862;2023-02-28T16:25:46;8.40;;;5.63;;
4867;SDS011;2448;48.086;10.862;2023-02-28T16:28:22;4.90;;;4.40;;
4867;SDS011;2448;48.086;10.862;2023-02-28T16:30:50;5.97;;;4.30;;
4867;SDS011;2448;48.086;10.862;2023-02-28T16:33:16;12.93;;;6.30;;
4867;SDS011;2448;48.086;10.862;2023-02-28T16:35:41;5.87;;;4.47;;
4867;SDS011;2448;48.086;10.862;2023-02-28T16:38:07;7.07;;;4.70;;
4867;SDS011;2448;48.086;10.862;2023-02-28T16:40:33;7.57;;;4.43;;
4867;SDS011;2448;48.086;10.862;2023-02-28T16:42:58;10.20;;;5.60;;
4867;SDS011;2448;48.086;10.862;2023-02-28T16:45:26;8.73;;;4.80;;
4867;SDS011;2448;48.086;10.862;2023-02-28T16:47:51;6.57;;;4.77;;
4867;SDS011;2448;48.086;10.862;2023-02-28T16:52:42;6.30;;;4.00;;
4867;SDS011;2448;48.086;10.862;2023-02-28T16:55:08;5.63;;;4.23;;
4867;SDS011;2448;48.086;10.862;2023-02-28T16:57:33;6.80;;;4.40;;
4867;SDS011;2448;48.086;10.862;2023-02-28T16:59:59;9.00;;;5.37;;
4867;SDS011;2448;48.086;10.862;2023-02-28T17:02:24;7.80;;;6.13;;
4867;SDS011;2448;48.086;10.862;2023-02-28T17:04:49;9.17;;;6.83;;
4867;SDS011;2448;48.086;10.862;2023-02-28T17:07:15;5.60;;;4.30;;
4867;SDS011;2448;48.086;10.862;2023-02-28T17:09:42;8.50;;;5.43;;
4867;SDS011;2448;48.086;10.862;2023-02-28T17:12:07;8.73;;;6.07;;
4867;SDS011;2448;48.086;10.862;2023-02-28T17:14:33;8.43;;;5.67;;
4867;SDS011;2448;48.086;10.862;2023-02-28T17:16:58;7.87;;;5.20;;
4867;SDS011;2448;48.086;10.862;2023-02-28T17:19:24;6.50;;;5.17;;
4867;SDS011;2448;48.086;10.862;2023-02-28T17:21:49;6.17;;;5.00;;
4867;SDS011;2448;48.086;10.862;2023-02-28T17:24:14;5.97;;;5.40;;
4867;SDS011;2448;48.086;10.862;2023-02-28T17:26:40;4.90;;;4.47;;
4867;SDS011;2448;48.086;10.862;2023-02-28T17:29:19;5.60;;;4.93;;